sensor_id;sensor_type;location;lat;lon;timestamp;pressure;altitude;pressure_sealevel;temperature;humidity
51876;BME280;34054;52.100;5.116;2022-09-23T00:00:00;101618.03;;;14.60;63.01
51876;BME280;34054;52.100;5.116;2022-09-23T00:00:32;101558.53;;;14.25;63.10
51876;BME280;34054;52.100;5.116;2022-09-23T00:01:05;101604.34;;;14.55;63.14
51876;BME280;34054;52.100;5.116;2022-09-23T00:01:40;101613.94;;;14.63;63.01
51876;BME280;34054;52.100;5.116;2022-09-23T00:02:12;101613.69;;;14.65;63.04
51876;BME280;34054;52.100;5.116;2022-09-23T00:02:44;101619.66;;;14.61;63.08
51876;BME280;34054;52.100;5.116;2022-09-23T00:03:18;101599.66;;;14.51;63.32
51876;BME280;34054;52.100;5.116;2022-09-23T00:03:50;101615.56;;;14.59;63.27
51876;BME280;34054;52.100;5.116;2022-09-23T00:04:22;101608.44;;;14.58;63.28
51876;BME280;34054;52.100;5.116;2022-09-23T00:04:55;101611.47;;;14.56;63.38
51876;BME280;34054;52.100;5.116;2022-09-23T00:05:27;101610.09;;;14.59;63.30
51876;BME280;34054;52.100;5.116;2022-09-23T00:06:02;101553.34;;;14.23;63.27
51876;BME280;34054;52.100;5.116;2022-09-23T00:06:38;101601.63;;;14.60;63.36
51876;BME280;34054;52.100;5.116;2022-09-23T00:07:09;101609.00;;;14.60;63.34
51876;BME280;34054;52.100;5.116;2022-09-23T00:07:41;101603.81;;;14.58;63.24
51876;BME280;34054;52.100;5.116;2022-09-23T00:08:12;101605.44;;;14.59;63.19
51876;BME280;34054;52.100;5.116;2022-09-23T00:08:46;101606.50;;;14.53;63.30
51876;BME280;34054;52.100;5.116;2022-09-23T00:09:19;101604.84;;;14.52;63.47
51876;BME280;34054;52.100;5.116;2022-09-23T00:09:52;101614.69;;;14.48;63.63
51876;BME280;34054;52.100;5.116;2022-09-23T00:10:27;101605.13;;;14.45;63.82
51876;BME280;34054;52.100;5.116;2022-09-23T00:11:03;101609.75;;;14.45;63.72
51876;BME280;34054;52.100;5.116;2022-09-23T00:11:37;101609.22;;;14.48;63.61
51876;BME280;34054;52.100;5.116;2022-09-23T00:12:09;101607.88;;;14.51;63.76
51876;BME280;34054;52.100;5.116;2022-09-23T00:12:41;101611.16;;;14.53;63.66
51876;BME280;34054;52.100;5.116;2022-09-23T00:13:12;101604.84;;;14.52;63.70
51876;BME280;34054;52.100;5.116;2022-09-23T00:13:45;101604.28;;;14.50;63.76
51876;BME280;34054;52.100;5.116;2022-09-23T00:14:20;101607.56;;;14.47;63.77
51876;BME280;34054;52.100;5.116;2022-09-23T00:14:51;101600.75;;;14.50;63.72
51876;BME280;34054;52.100;5.116;2022-09-23T00:15:23;101604.28;;;14.45;63.83
51876;BME280;34054;52.100;5.116;2022-09-23T00:16:01;101602.06;;;14.42;63.75
51876;BME280;34054;52.100;5.116;2022-09-23T00:16:34;101608.09;;;14.44;63.60
51876;BME280;34054;52.100;5.116;2022-09-23T00:17:05;101616.84;;;14.46;63.63
51876;BME280;34054;52.100;5.116;2022-09-23T00:17:38;101612.47;;;14.45;63.61
51876;BME280;34054;52.100;5.116;2022-09-23T00:18:10;101616.56;;;14.42;63.56
51876;BME280;34054;52.100;5.116;2022-09-23T00:18:42;101608.88;;;14.39;63.57
51876;BME280;34054;52.100;5.116;2022-09-23T00:19:13;101617.91;;;14.40;63.74
51876;BME280;34054;52.100;5.116;2022-09-23T00:19:46;101614.63;;;14.43;63.84
51876;BME280;34054;52.100;5.116;2022-09-23T00:20:18;101614.63;;;14.43;63.82
51876;BME280;34054;52.100;5.116;2022-09-23T00:20:50;101618.22;;;14.43;63.81
51876;BME280;34054;52.100;5.116;2022-09-23T00:21:22;101612.75;;;14.43;63.88
51876;BME280;34054;52.100;5.116;2022-09-23T00:21:56;101611.97;;;14.48;63.76
51876;BME280;34054;52.100;5.116;2022-09-23T00:22:27;101613.34;;;14.51;63.70
51876;BME280;34054;52.100;5.116;2022-09-23T00:22:59;101615.22;;;14.50;63.69
51876;BME280;34054;52.100;5.116;2022-09-23T00:23:32;101616.06;;;14.51;63.67
51876;BME280;34054;52.100;5.116;2022-09-23T00:24:04;101607.28;;;14.43;63.47
51876;BME280;34054;52.100;5.116;2022-09-23T00:24:38;101608.66;;;14.46;63.58
51876;BME280;34054;52.100;5.116;2022-09-23T00:25:12;101609.75;;;14.45;63.76
51876;BME280;34054;52.100;5.116;2022-09-23T00:25:43;101561.25;;;14.20;63.82
51876;BME280;34054;52.100;5.116;2022-09-23T00:26:16;101601.84;;;14.49;63.77
51876;BME280;34054;52.100;5.116;2022-09-23T00:26:50;101604.25;;;14.40;63.81
51876;BME280;34054;52.100;5.116;2022-09-23T00:27:21;101564.78;;;14.20;63.87
51876;BME280;34054;52.100;5.116;2022-09-23T00:27:53;101590.00;;;14.33;64.06
51876;BME280;34054;52.100;5.116;2022-09-23T00:28:26;101599.31;;;14.42;64.09
51876;BME280;34054;52.100;5.116;2022-09-23T00:28:57;101596.06;;;14.45;64.02
51876;BME280;34054;52.100;5.116;2022-09-23T00:29:31;101598.25;;;14.43;64.12
51876;BME280;34054;52.100;5.116;2022-09-23T00:30:06;101599.09;;;14.43;64.05
51876;BME280;34054;52.100;5.116;2022-09-23T00:30:40;101600.16;;;14.42;64.07
51876;BME280;34054;52.100;5.116;2022-09-23T00:31:19;101600.16;;;14.42;63.92
51876;BME280;34054;52.100;5.116;2022-09-23T00:31:51;101597.44;;;14.42;63.98
51876;BME280;34054;52.100;5.116;2022-09-23T00:32:23;101596.88;;;14.40;64.13
51876;BME280;34054;52.100;5.116;2022-09-23T00:32:55;101588.66;;;14.35;64.08
51876;BME280;34054;52.100;5.116;2022-09-23T00:33:27;101597.44;;;14.42;64.11
51876;BME280;34054;52.100;5.116;2022-09-23T00:34:00;101587.59;;;14.41;64.02
51876;BME280;34054;52.100;5.116;2022-09-23T00:34:32;101591.41;;;14.40;64.06
51876;BME280;34054;52.100;5.116;2022-09-23T00:35:05;101581.81;;;14.38;64.12
51876;BME280;34054;52.100;5.116;2022-09-23T00:35:38;101593.31;;;14.40;64.18
51876;BME280;34054;52.100;5.116;2022-09-23T00:36:14;101583.78;;;14.42;64.16
51876;BME280;34054;52.100;5.116;2022-09-23T00:36:47;101534.66;;;14.10;64.15
51876;BME280;34054;52.100;5.116;2022-09-23T00:37:19;101581.81;;;14.38;64.17
51876;BME280;34054;52.100;5.116;2022-09-23T00:37:51;101586.78;;;14.41;64.19
51876;BME280;34054;52.100;5.116;2022-09-23T00:38:22;101581.56;;;14.39;63.97
51876;BME280;34054;52.100;5.116;2022-09-23T00:38:55;101590.84;;;14.38;64.01
51876;BME280;34054;52.100;5.116;2022-09-23T00:39:26;101578.81;;;14.39;63.85
51876;BME280;34054;52.100;5.116;2022-09-23T00:39:58;101580.75;;;14.39;63.75
51876;BME280;34054;52.100;5.116;2022-09-23T00:40:32;101582.91;;;14.37;63.85
51876;BME280;34054;52.100;5.116;2022-09-23T00:41:04;101582.09;;;14.36;64.03
51876;BME280;34054;52.100;5.116;2022-09-23T00:41:36;101577.72;;;14.35;64.05
51876;BME280;34054;52.100;5.116;2022-09-23T00:42:12;101583.19;;;14.40;63.85
51876;BME280;34054;52.100;5.116;2022-09-23T00:42:47;101582.34;;;14.35;63.91
51876;BME280;34054;52.100;5.116;2022-09-23T00:43:34;101582.34;;;14.35;63.97
51876;BME280;34054;52.100;5.116;2022-09-23T00:44:43;101588.31;;;14.26;64.19
51876;BME280;34054;52.100;5.116;2022-09-23T00:45:19;101586.41;;;14.27;64.17
51876;BME280;34054;52.100;5.116;2022-09-23T00:45:50;101565.31;;;14.17;64.22
51876;BME280;34054;52.100;5.116;2022-09-23T00:46:25;101583.69;;;14.27;64.21
51876;BME280;34054;52.100;5.116;2022-09-23T00:47:01;101591.31;;;14.25;64.16
51876;BME280;34054;52.100;5.116;2022-09-23T00:47:35;101581.69;;;14.17;64.53
51876;BME280;34054;52.100;5.116;2022-09-23T00:48:15;101587.44;;;14.21;64.41
51876;BME280;34054;52.100;5.116;2022-09-23T00:48:55;101585.81;;;14.20;64.55
51876;BME280;34054;52.100;5.116;2022-09-23T00:49:30;101544.19;;;14.02;64.42
51876;BME280;34054;52.100;5.116;2022-09-23T00:50:06;101578.47;;;14.25;64.42
51876;BME280;34054;52.100;5.116;2022-09-23T00:50:47;101578.16;;;14.22;64.30
51876;BME280;34054;52.100;5.116;2022-09-23T00:51:28;101568.56;;;14.14;64.31
51876;BME280;34054;52.100;5.116;2022-09-23T00:52:08;101576.78;;;14.19;64.33
51876;BME280;34054;52.100;5.116;2022-09-23T00:52:44;101575.72;;;14.20;64.44
51876;BME280;34054;52.100;5.116;2022-09-23T00:53:19;101564.72;;;14.10;64.35
51876;BME280;34054;52.100;5.116;2022-09-23T00:53:56;101582.25;;;14.19;64.27
51876;BME280;34054;52.100;5.116;2022-09-23T00:54:28;101583.63;;;14.17;64.30
51876;BME280;34054;52.100;5.116;2022-09-23T00:55:04;101565.84;;;14.14;64.28
51876;BME280;34054;52.100;5.116;2022-09-23T00:55:45;101567.72;;;14.13;64.34
51876;BME280;34054;52.100;5.116;2022-09-23T00:56:21;101570.97;;;14.05;64.27
51876;BME280;34054;52.100;5.116;2022-09-23T00:56:56;101546.88;;;13.97;64.47
51876;BME280;34054;52.100;5.116;2022-09-23T00:57:30;101580.88;;;14.17;64.39
51876;BME280;34054;52.100;5.116;2022-09-23T00:58:04;101582.53;;;14.18;64.43
51876;BME280;34054;52.100;5.116;2022-09-23T00:58:42;101583.63;;;14.17;64.51
51876;BME280;34054;52.100;5.116;2022-09-23T00:59:16;101563.59;;;14.06;64.35
51876;BME280;34054;52.100;5.116;2022-09-23T00:59:49;101579.78;;;14.18;64.34
51876;BME280;34054;52.100;5.116;2022-09-23T01:00:22;101585.25;;;14.18;64.29
51876;BME280;34054;52.100;5.116;2022-09-23T01:00:54;101586.06;;;14.18;64.29
51876;BME280;34054;52.100;5.116;2022-09-23T01:01:29;101580.59;;;14.18;64.22
51876;BME280;34054;52.100;5.116;2022-09-23T01:02:01;101581.16;;;14.15;64.38
51876;BME280;34054;52.100;5.116;2022-09-23T01:02:34;101586.00;;;14.08;64.60
51876;BME280;34054;52.100;5.116;2022-09-23T01:03:09;101583.81;;;14.10;64.71
51876;BME280;34054;52.100;5.116;2022-09-23T01:03:44;101579.22;;;14.10;64.67
51876;BME280;34054;52.100;5.116;2022-09-23T01:04:18;101584.97;;;14.14;64.65
51876;BME280;34054;52.100;5.116;2022-09-23T01:04:49;101583.88;;;14.15;64.61
51876;BME280;34054;52.100;5.116;2022-09-23T01:05:22;101560.53;;;13.97;64.83
51876;BME280;34054;52.100;5.116;2022-09-23T01:05:55;101581.09;;;14.10;64.68
51876;BME280;34054;52.100;5.116;2022-09-23T01:06:28;101576.41;;;14.05;64.64
51876;BME280;34054;52.100;5.116;2022-09-23T01:06:59;101580.28;;;14.09;64.64
51876;BME280;34054;52.100;5.116;2022-09-23T01:07:31;101540.25;;;13.88;64.66
51876;BME280;34054;52.100;5.116;2022-09-23T01:08:06;101581.66;;;14.12;64.71
51876;BME280;34054;52.100;5.116;2022-09-23T01:08:42;101573.47;;;14.12;64.71
51876;BME280;34054;52.100;5.116;2022-09-23T01:09:16;101538.34;;;13.88;64.71
51876;BME280;34054;52.100;5.116;2022-09-23T01:09:50;101573.44;;;14.07;64.71
51876;BME280;34054;52.100;5.116;2022-09-23T01:10:23;101575.63;;;14.05;65.01
51876;BME280;34054;52.100;5.116;2022-09-23T01:11:05;101562.44;;;13.96;64.87
51876;BME280;34054;52.100;5.116;2022-09-23T01:11:50;101569.56;;;13.97;64.93
51876;BME280;34054;52.100;5.116;2022-09-23T01:12:40;101575.56;;;14.00;65.08
51876;BME280;34054;52.100;5.116;2022-09-23T01:13:29;101545.91;;;13.76;65.23
51876;BME280;34054;52.100;5.116;2022-09-23T01:14:15;101573.66;;;14.00;65.04
51876;BME280;34054;52.100;5.116;2022-09-23T01:15:07;101577.47;;;13.99;64.62
51876;BME280;34054;52.100;5.116;2022-09-23T01:15:47;101570.63;;;13.96;64.62
51876;BME280;34054;52.100;5.116;2022-09-23T01:16:27;101570.06;;;13.94;64.73
51876;BME280;34054;52.100;5.116;2022-09-23T01:17:10;101573.06;;;13.93;64.18
51876;BME280;34054;52.100;5.116;2022-09-23T01:17:55;101569.97;;;13.84;64.78
51876;BME280;34054;52.100;5.116;2022-09-23T01:18:45;101569.47;;;13.87;64.80
51876;BME280;34054;52.100;5.116;2022-09-23T01:19:45;101569.69;;;13.80;64.30
51876;BME280;34054;52.100;5.116;2022-09-23T01:20:56;101568.56;;;13.76;64.96
51876;BME280;34054;52.100;5.116;2022-09-23T01:21:44;101561.47;;;13.75;65.04
51876;BME280;34054;52.100;5.116;2022-09-23T01:22:30;101563.63;;;13.73;65.32
51876;BME280;34054;52.100;5.116;2022-09-23T01:23:23;101561.75;;;13.79;65.40
51876;BME280;34054;52.100;5.116;2022-09-23T01:25:43;101566.19;;;13.85;65.12
51876;BME280;34054;52.100;5.116;2022-09-23T01:26:50;101562.09;;;13.88;65.16
51876;BME280;34054;52.100;5.116;2022-09-23T01:27:45;101557.97;;;13.85;65.02
51876;BME280;34054;52.100;5.116;2022-09-23T01:28:50;101551.72;;;13.85;64.88
51876;BME280;34054;52.100;5.116;2022-09-23T01:30:04;101558.56;;;13.87;64.95
51876;BME280;34054;52.100;5.116;2022-09-23T01:31:07;101564.53;;;13.84;65.04
51876;BME280;34054;52.100;5.116;2022-09-23T01:31:49;101554.66;;;13.78;65.10
51876;BME280;34054;52.100;5.116;2022-09-23T01:32:37;101557.41;;;13.83;65.28
51876;BME280;34054;52.100;5.116;2022-09-23T01:33:22;101557.41;;;13.83;64.93
51876;BME280;34054;52.100;5.116;2022-09-23T01:34:06;101554.16;;;13.81;65.00
51876;BME280;34054;52.100;5.116;2022-09-23T01:34:48;101554.66;;;13.78;65.02
51876;BME280;34054;52.100;5.116;2022-09-23T01:35:29;101561.78;;;13.84;64.85
51876;BME280;34054;52.100;5.116;2022-09-23T01:36:18;101559.06;;;13.84;65.01
51876;BME280;34054;52.100;5.116;2022-09-23T01:36:57;101558.47;;;13.77;65.13
51876;BME280;34054;52.100;5.116;2022-09-23T01:37:40;101563.41;;;13.80;65.03
51876;BME280;34054;52.100;5.116;2022-09-23T01:38:31;101565.06;;;13.81;64.96
51876;BME280;34054;52.100;5.116;2022-09-23T01:39:12;101540.13;;;13.67;65.19
51876;BME280;34054;52.100;5.116;2022-09-23T01:39:58;101557.13;;;13.79;65.26
51876;BME280;34054;52.100;5.116;2022-09-23T01:40:46;101545.56;;;13.67;65.24
51876;BME280;34054;52.100;5.116;2022-09-23T01:41:33;101552.44;;;13.75;65.29
51876;BME280;34054;52.100;5.116;2022-09-23T01:42:24;101559.84;;;13.79;65.25
51876;BME280;34054;52.100;5.116;2022-09-23T01:43:04;101552.22;;;13.81;65.25
51876;BME280;34054;52.100;5.116;2022-09-23T01:43:46;101551.94;;;13.78;65.32
51876;BME280;34054;52.100;5.116;2022-09-23T01:44:29;101556.81;;;13.76;65.45
51876;BME280;34054;52.100;5.116;2022-09-23T01:45:08;101553.50;;;13.74;65.50
51876;BME280;34054;52.100;5.116;2022-09-23T01:45:49;101462.97;;;13.17;65.50
51876;BME280;34054;52.100;5.116;2022-09-23T01:46:28;101552.19;;;13.76;65.47
51876;BME280;34054;52.100;5.116;2022-09-23T01:47:06;101554.94;;;13.76;65.63
51876;BME280;34054;52.100;5.116;2022-09-23T01:47:47;101554.66;;;13.78;65.48
51876;BME280;34054;52.100;5.116;2022-09-23T01:48:28;101553.56;;;13.79;65.50
51876;BME280;34054;52.100;5.116;2022-09-23T01:49:11;101544.81;;;13.77;65.59
51876;BME280;34054;52.100;5.116;2022-09-23T01:49:52;101534.38;;;13.69;65.59
51876;BME280;34054;52.100;5.116;2022-09-23T01:50:33;101555.47;;;13.78;65.71
51876;BME280;34054;52.100;5.116;2022-09-23T01:51:31;101551.91;;;13.73;65.70
51876;BME280;34054;52.100;5.116;2022-09-23T01:52:10;101550.25;;;13.72;65.90
51876;BME280;34054;52.100;5.116;2022-09-23T01:52:52;101548.06;;;13.74;65.92
51876;BME280;34054;52.100;5.116;2022-09-23T01:53:34;101552.72;;;13.73;65.68
51876;BME280;34054;52.100;5.116;2022-09-23T01:54:14;101524.44;;;13.57;65.78
51876;BME280;34054;52.100;5.116;2022-09-23T01:54:56;101545.31;;;13.69;65.63
51876;BME280;34054;52.100;5.116;2022-09-23T01:55:38;101550.28;;;13.77;65.58
51876;BME280;34054;52.100;5.116;2022-09-23T01:56:15;101542.59;;;13.74;65.79
51876;BME280;34054;52.100;5.116;2022-09-23T01:56:53;101543.94;;;13.71;65.75
51876;BME280;34054;52.100;5.116;2022-09-23T01:57:34;101551.31;;;13.71;65.85
51876;BME280;34054;52.100;5.116;2022-09-23T01:58:13;101542.00;;;13.66;66.11
51876;BME280;34054;52.100;5.116;2022-09-23T01:58:57;101531.25;;;13.55;66.10
51876;BME280;34054;52.100;5.116;2022-09-23T01:59:38;101546.44;;;13.73;65.99
51876;BME280;34054;52.100;5.116;2022-09-23T02:00:16;101550.78;;;13.74;65.80
51876;BME280;34054;52.100;5.116;2022-09-23T02:00:57;101548.31;;;13.72;65.88
51876;BME280;34054;52.100;5.116;2022-09-23T02:01:35;101553.50;;;13.74;65.90
51876;BME280;34054;52.100;5.116;2022-09-23T02:02:13;101540.44;;;13.76;65.81
51876;BME280;34054;52.100;5.116;2022-09-23T02:02:52;101543.13;;;13.71;65.92
51876;BME280;34054;52.100;5.116;2022-09-23T02:03:32;101543.13;;;13.71;65.98
51876;BME280;34054;52.100;5.116;2022-09-23T02:04:14;101545.59;;;13.72;66.04
51876;BME280;34054;52.100;5.116;2022-09-23T02:04:56;101539.88;;;13.74;65.96
51876;BME280;34054;52.100;5.116;2022-09-23T02:05:36;101543.38;;;13.69;65.87
51876;BME280;34054;52.100;5.116;2022-09-23T02:06:18;101546.38;;;13.68;65.85
51876;BME280;34054;52.100;5.116;2022-09-23T02:06:55;101537.63;;;13.65;66.00
51876;BME280;34054;52.100;5.116;2022-09-23T02:07:35;101536.00;;;13.64;66.10
51876;BME280;34054;52.100;5.116;2022-09-23T02:08:15;101539.84;;;13.69;66.14
51876;BME280;34054;52.100;5.116;2022-09-23T02:08:56;101537.69;;;13.71;65.98
51876;BME280;34054;52.100;5.116;2022-09-23T02:09:34;101534.94;;;13.71;65.94
51876;BME280;34054;52.100;5.116;2022-09-23T02:10:12;101532.47;;;13.69;65.95
51876;BME280;34054;52.100;5.116;2022-09-23T02:10:49;101531.13;;;13.72;65.76
51876;BME280;34054;52.100;5.116;2022-09-23T02:11:24;101528.91;;;13.69;65.92
51876;BME280;34054;52.100;5.116;2022-09-23T02:12:00;101530.06;;;13.73;65.65
51876;BME280;34054;52.100;5.116;2022-09-23T02:12:37;101535.25;;;13.74;65.67
51876;BME280;34054;52.100;5.116;2022-09-23T02:13:15;101533.03;;;13.71;65.87
51876;BME280;34054;52.100;5.116;2022-09-23T02:13:53;101535.19;;;13.69;65.72
51876;BME280;34054;52.100;5.116;2022-09-23T02:14:32;101527.53;;;13.66;65.74
51876;BME280;34054;52.100;5.116;2022-09-23T02:15:10;101531.38;;;13.70;65.70
51876;BME280;34054;52.100;5.116;2022-09-23T02:15:49;101528.94;;;13.74;65.55
51876;BME280;34054;52.100;5.116;2022-09-23T02:16:29;101517.69;;;13.65;65.83
51876;BME280;34054;52.100;5.116;2022-09-23T02:17:08;101531.09;;;13.66;65.83
51876;BME280;34054;52.100;5.116;2022-09-23T02:17:44;101531.63;;;13.63;66.06
51876;BME280;34054;52.100;5.116;2022-09-23T02:18:23;101511.91;;;13.56;66.05
51876;BME280;34054;52.100;5.116;2022-09-23T02:19:03;101527.53;;;13.66;65.98
51876;BME280;34054;52.100;5.116;2022-09-23T02:19:45;101524.28;;;13.69;65.78
51876;BME280;34054;52.100;5.116;2022-09-23T02:20:23;101527.28;;;13.68;65.81
51876;BME280;34054;52.100;5.116;2022-09-23T02:21:03;101504.75;;;13.50;65.71
51876;BME280;34054;52.100;5.116;2022-09-23T02:21:41;101523.69;;;13.62;65.58
51876;BME280;34054;52.100;5.116;2022-09-23T02:22:19;101522.56;;;13.58;65.95
51876;BME280;34054;52.100;5.116;2022-09-23T02:22:59;101527.19;;;13.57;66.08
51876;BME280;34054;52.100;5.116;2022-09-23T02:23:37;101523.63;;;13.52;66.23
51876;BME280;34054;52.100;5.116;2022-09-23T02:24:17;101512.06;;;13.44;66.35
51876;BME280;34054;52.100;5.116;2022-09-23T02:24:51;101516.44;;;13.45;66.41
51876;BME280;34054;52.100;5.116;2022-09-23T02:25:30;101519.75;;;13.47;66.47
51876;BME280;34054;52.100;5.116;2022-09-23T02:26:14;101511.53;;;13.42;66.37
51876;BME280;34054;52.100;5.116;2022-09-23T02:26:52;101516.75;;;13.49;66.44
51876;BME280;34054;52.100;5.116;2022-09-23T02:27:35;101522.78;;;13.51;66.50
51876;BME280;34054;52.100;5.116;2022-09-23T02:28:15;101516.22;;;13.47;66.51
51876;BME280;34054;52.100;5.116;2022-09-23T02:28:55;101514.00;;;13.49;66.37
51876;BME280;34054;52.100;5.116;2022-09-23T02:29:42;101510.50;;;13.54;66.44
51876;BME280;34054;52.100;5.116;2022-09-23T02:30:27;101515.16;;;13.53;66.38
51876;BME280;34054;52.100;5.116;2022-09-23T02:31:05;101515.66;;;13.50;66.26
51876;BME280;34054;52.100;5.116;2022-09-23T02:31:51;101473.63;;;13.18;66.52
51876;BME280;34054;52.100;5.116;2022-09-23T02:32:32;101515.06;;;13.43;66.50
51876;BME280;34054;52.100;5.116;2022-09-23T02:33:10;101506.91;;;13.48;66.34
51876;BME280;34054;52.100;5.116;2022-09-23T02:33:54;101498.63;;;13.38;66.31
51876;BME280;34054;52.100;5.116;2022-09-23T02:34:40;101505.00;;;13.43;66.42
51876;BME280;34054;52.100;5.116;2022-09-23T02:35:18;101505.50;;;13.40;66.58
51876;BME280;34054;52.100;5.116;2022-09-23T02:36:05;101507.44;;;13.45;66.46
51876;BME280;34054;52.100;5.116;2022-09-23T02:36:51;101498.69;;;13.43;66.51
51876;BME280;34054;52.100;5.116;2022-09-23T02:37:38;101491.84;;;13.40;66.44
51876;BME280;34054;52.100;5.116;2022-09-23T02:38:22;101500.38;;;13.49;66.46
51876;BME280;34054;52.100;5.116;2022-09-23T02:39:03;101503.38;;;13.47;66.45
51876;BME280;34054;52.100;5.116;2022-09-23T02:39:48;101504.44;;;13.46;66.52
51876;BME280;34054;52.100;5.116;2022-09-23T02:40:31;101493.84;;;13.50;66.50
51876;BME280;34054;52.100;5.116;2022-09-23T02:41:11;101500.91;;;13.46;66.51
51876;BME280;34054;52.100;5.116;2022-09-23T02:41:52;101496.47;;;13.40;66.89
51876;BME280;34054;52.100;5.116;2022-09-23T02:42:38;101502.28;;;13.48;66.56
51876;BME280;34054;52.100;5.116;2022-09-23T02:43:20;101498.72;;;13.48;66.30
51876;BME280;34054;52.100;5.116;2022-09-23T02:44:06;101502.00;;;13.45;66.60
51876;BME280;34054;52.100;5.116;2022-09-23T02:44:41;101502.81;;;13.45;66.46
51876;BME280;34054;52.100;5.116;2022-09-23T02:45:13;101496.81;;;13.43;66.46
51876;BME280;34054;52.100;5.116;2022-09-23T02:45:46;101503.06;;;13.44;66.55
51876;BME280;34054;52.100;5.116;2022-09-23T02:46:19;101496.53;;;13.45;66.31
51876;BME280;34054;52.100;5.116;2022-09-23T02:46:53;101461.69;;;13.25;66.31
51876;BME280;34054;52.100;5.116;2022-09-23T02:47:29;101502.28;;;13.48;66.33
51876;BME280;34054;52.100;5.116;2022-09-23T02:48:09;101496.22;;;13.41;66.45
51876;BME280;34054;52.100;5.116;2022-09-23T02:48:49;101481.91;;;13.29;66.65
51876;BME280;34054;52.100;5.116;2022-09-23T02:49:28;101498.31;;;13.34;66.87
51876;BME280;34054;52.100;5.116;2022-09-23T02:50:01;101497.31;;;13.40;66.75
51876;BME280;34054;52.100;5.116;2022-09-23T02:50:33;101478.41;;;13.33;66.66
51876;BME280;34054;52.100;5.116;2022-09-23T02:51:08;101496.53;;;13.45;66.55
51876;BME280;34054;52.100;5.116;2022-09-23T02:51:40;101485.31;;;13.41;66.63
51876;BME280;34054;52.100;5.116;2022-09-23T02:52:12;101491.84;;;13.40;66.54
51876;BME280;34054;52.100;5.116;2022-09-23T02:52:45;101473.19;;;13.32;66.62
51876;BME280;34054;52.100;5.116;2022-09-23T02:53:16;101495.44;;;13.46;66.09
51876;BME280;34054;52.100;5.116;2022-09-23T02:53:48;101491.25;;;13.38;66.04
51876;BME280;34054;52.100;5.116;2022-09-23T02:54:23;101472.03;;;13.23;66.22
51876;BME280;34054;52.100;5.116;2022-09-23T02:54:58;101493.09;;;13.32;66.29
51876;BME280;34054;52.100;5.116;2022-09-23T02:55:31;101489.84;;;13.30;66.31
51876;BME280;34054;52.100;5.116;2022-09-23T02:56:13;101491.72;;;13.30;66.48
51876;BME280;34054;52.100;5.116;2022-09-23T02:56:47;101490.91;;;13.29;66.71
51876;BME280;34054;52.100;5.116;2022-09-23T02:57:19;101488.72;;;13.31;66.60
51876;BME280;34054;52.100;5.116;2022-09-23T02:57:51;101490.38;;;13.32;66.42
51876;BME280;34054;52.100;5.116;2022-09-23T02:58:24;101483.53;;;13.30;66.53
51876;BME280;34054;52.100;5.116;2022-09-23T02:58:56;101471.47;;;13.20;66.56
51876;BME280;34054;52.100;5.116;2022-09-23T02:59:28;101488.50;;;13.33;66.57
51876;BME280;34054;52.100;5.116;2022-09-23T03:00:03;101494.47;;;13.30;66.60
51876;BME280;34054;52.100;5.116;2022-09-23T03:00:44;101489.84;;;13.30;66.68
51876;BME280;34054;52.100;5.116;2022-09-23T03:01:37;101489.88;;;13.35;66.62
51876;BME280;34054;52.100;5.116;2022-09-23T03:02:32;101489.59;;;13.37;66.69
51876;BME280;34054;52.100;5.116;2022-09-23T03:03:35;101495.66;;;13.39;66.42
51876;BME280;34054;52.100;5.116;2022-09-23T03:04:15;101491.88;;;13.45;66.37
51876;BME280;34054;52.100;5.116;2022-09-23T03:05:04;101489.72;;;13.47;65.82
51876;BME280;34054;52.100;5.116;2022-09-23T03:05:47;101495.16;;;13.42;65.90
51876;BME280;34054;52.100;5.116;2022-09-23T03:06:26;101491.25;;;13.38;66.26
51876;BME280;34054;52.100;5.116;2022-09-23T03:07:04;101477.59;;;13.33;66.16
51876;BME280;34054;52.100;5.116;2022-09-23T03:07:53;101492.34;;;13.37;65.99
51876;BME280;34054;52.100;5.116;2022-09-23T03:08:41;101485.00;;;13.38;66.02
51876;BME280;34054;52.100;5.116;2022-09-23T03:09:23;101473.16;;;13.27;66.26
51876;BME280;34054;52.100;5.116;2022-09-23T03:10:06;101486.06;;;13.37;66.21
51876;BME280;34054;52.100;5.116;2022-09-23T03:10:53;101481.69;;;13.35;66.31
51876;BME280;34054;52.100;5.116;2022-09-23T03:11:32;101489.00;;;13.30;66.21
51876;BME280;34054;52.100;5.116;2022-09-23T03:12:13;101474.78;;;13.28;66.26
51876;BME280;34054;52.100;5.116;2022-09-23T03:13:00;101484.63;;;13.29;66.38
51876;BME280;34054;52.100;5.116;2022-09-23T03:13:51;101480.00;;;13.29;66.31
51876;BME280;34054;52.100;5.116;2022-09-23T03:14:41;101469.03;;;13.24;66.44
51876;BME280;34054;52.100;5.116;2022-09-23T03:15:25;101487.16;;;13.35;66.47
51876;BME280;34054;52.100;5.116;2022-09-23T03:16:11;101482.50;;;13.36;66.58
51876;BME280;34054;52.100;5.116;2022-09-23T03:16:55;101484.16;;;13.37;66.68
51876;BME280;34054;52.100;5.116;2022-09-23T03:17:42;101482.84;;;13.40;66.68
51876;BME280;34054;52.100;5.116;2022-09-23T03:18:23;101484.25;;;13.42;66.54
51876;BME280;34054;52.100;5.116;2022-09-23T03:19:13;101480.34;;;13.38;66.70
51876;BME280;34054;52.100;5.116;2022-09-23T03:19:56;101482.03;;;13.39;66.81
51876;BME280;34054;52.100;5.116;2022-09-23T03:20:34;101482.59;;;13.41;66.72
51876;BME280;34054;52.100;5.116;2022-09-23T03:21:15;101482.31;;;13.43;66.83
51876;BME280;34054;52.100;5.116;2022-09-23T03:21:58;101482.31;;;13.43;66.61
51876;BME280;34054;52.100;5.116;2022-09-23T03:22:39;101484.28;;;13.47;66.50
51876;BME280;34054;52.100;5.116;2022-09-23T03:23:17;101474.31;;;13.36;66.67
51876;BME280;34054;52.100;5.116;2022-09-23T03:23:58;101467.31;;;13.40;66.57
51876;BME280;34054;52.100;5.116;2022-09-23T03:24:35;101482.41;;;13.53;66.56